sensor_id;sensor_type;location;lat;lon;timestamp;pressure;altitude;pressure_sealevel;temperature;humidity
21817;BME280;13247;47.504;7.382;2023-01-29T00:02:20;98259.25;;;1.31;100.00
21817;BME280;13247;47.504;7.382;2023-01-29T00:05:05;98265.56;;;1.48;100.00
21817;BME280;13247;47.504;7.382;2023-01-29T00:07:51;98266.03;;;1.27;100.00
21817;BME280;13247;47.504;7.382;2023-01-29T00:10:36;98271.19;;;1.26;100.00
21817;BME280;13247;47.504;7.382;2023-01-29T00:13:20;98266.81;;;1.23;100.00
21817;BME280;13247;47.504;7.382;2023-01-29T00:16:05;98274.66;;;1.28;100.00
21817;BME280;13247;47.504;7.382;2023-01-29T00:18:50;98271.63;;;1.50;100.00
21817;BME280;13247;47.504;7.382;2023-01-29T00:21:35;98279.19;;;1.39;100.00
21817;BME280;13247;47.504;7.382;2023-01-29T00:24:20;98272.41;;;1.44;100.00
21817;BME280;13247;47.504;7.382;2023-01-29T00:27:05;98276.53;;;1.35;100.00
21817;BME280;13247;47.504;7.382;2023-01-29T00:29:50;98266.00;;;1.24;100.00
21817;BME280;13247;47.504;7.382;2023-01-29T00:32:53;98264.66;;;1.46;100.00
21817;BME280;13247;47.504;7.382;2023-01-29T00:35:39;98279.03;;;1.30;100.00
21817;BME280;13247;47.504;7.382;2023-01-29T00:38:25;98269.41;;;1.25;100.00
21817;BME280;13247;47.504;7.382;2023-01-29T00:41:13;98278.06;;;1.27;100.00
21817;BME280;13247;47.504;7.382;2023-01-29T00:44:18;98270.63;;;1.42;100.00
21817;BME280;13247;47.504;7.382;2023-01-29T00:47:22;98263.22;;;1.15;100.00
21817;BME280;13247;47.504;7.382;2023-01-29T00:50:19;98263.97;;;1.10;100.00
21817;BME280;13247;47.504;7.382;2023-01-29T00:53:04;98273.22;;;1.42;100.00
21817;BME280;13247;47.504;7.382;2023-01-29T00:55:48;98282.88;;;1.09;100.00
21817;BME280;13247;47.504;7.382;2023-01-29T00:58:33;98269.19;;;1.13;100.00
21817;BME280;13247;47.504;7.382;2023-01-29T01:01:18;98268.38;;;1.15;100.00
21817;BME280;13247;47.504;7.382;2023-01-29T01:04:25;98270.00;;;1.10;100.00
21817;BME280;13247;47.504;7.382;2023-01-29T01:07:10;98274.53;;;1.20;100.00
21817;BME280;13247;47.504;7.382;2023-01-29T01:09:54;98276.28;;;1.23;100.00
21817;BME280;13247;47.504;7.382;2023-01-29T01:13:00;98278.56;;;1.08;100.00
21817;BME280;13247;47.504;7.382;2023-01-29T01:15:45;98281.16;;;1.08;100.00
21817;BME280;13247;47.504;7.382;2023-01-29T01:18:30;98269.00;;;1.04;100.00
21817;BME280;13247;47.504;7.382;2023-01-29T01:21:14;98270.75;;;1.05;100.00
21817;BME280;13247;47.504;7.382;2023-01-29T01:23:59;98282.78;;;1.04;100.00
21817;BME280;13247;47.504;7.382;2023-01-29T01:26:44;98284.47;;;1.04;100.00
21817;BME280;13247;47.504;7.382;2023-01-29T01:29:28;98287.50;;;0.85;100.00
21817;BME280;13247;47.504;7.382;2023-01-29T01:32:13;98294.31;;;1.21;100.00
21817;BME280;13247;47.504;7.382;2023-01-29T01:34:58;98284.63;;;1.10;100.00
21817;BME280;13247;47.504;7.382;2023-01-29T01:37:42;98283.81;;;1.12;100.00
21817;BME280;13247;47.504;7.382;2023-01-29T01:40:27;98283.00;;;1.15;100.00
21817;BME280;13247;47.504;7.382;2023-01-29T01:43:11;98292.50;;;1.16;100.00
21817;BME280;13247;47.504;7.382;2023-01-29T01:45:56;98280.59;;;1.22;100.00
21817;BME280;13247;47.504;7.382;2023-01-29T01:48:41;98284.75;;;1.16;100.00
21817;BME280;13247;47.504;7.382;2023-01-29T01:51:31;98295.72;;;1.06;100.00
21817;BME280;13247;47.504;7.382;2023-01-29T01:54:27;98291.06;;;1.30;100.00
21817;BME280;13247;47.504;7.382;2023-01-29T01:57:17;98297.22;;;0.95;100.00
21817;BME280;13247;47.504;7.382;2023-01-29T02:00:10;98296.78;;;1.15;100.00
21817;BME280;13247;47.504;7.382;2023-01-29T02:02:57;98283.50;;;1.39;100.00
21817;BME280;13247;47.504;7.382;2023-01-29T02:06:02;98286.69;;;1.26;100.00
21817;BME280;13247;47.504;7.382;2023-01-29T02:09:12;98281.28;;;1.58;100.00
21817;BME280;13247;47.504;7.382;2023-01-29T02:12:16;98302.84;;;1.16;100.00
21817;BME280;13247;47.504;7.382;2023-01-29T02:15:04;98297.78;;;1.20;100.00
21817;BME280;13247;47.504;7.382;2023-01-29T02:17:50;98291.84;;;1.26;100.00
21817;BME280;13247;47.504;7.382;2023-01-29T02:20:35;98289.88;;;1.57;100.00
21817;BME280;13247;47.504;7.382;2023-01-29T02:29:36;98293.44;;;1.63;100.00
21817;BME280;13247;47.504;7.382;2023-01-29T02:32:40;98283.66;;;1.48;100.00
21817;BME280;13247;47.504;7.382;2023-01-29T02:42:25;98283.50;;;1.39;100.00
21817;BME280;13247;47.504;7.382;2023-01-29T02:45:34;98284.13;;;1.27;100.00
21817;BME280;13247;47.504;7.382;2023-01-29T02:48:22;98281.63;;;1.32;100.00
21817;BME280;13247;47.504;7.382;2023-01-29T02:51:33;98275.63;;;1.33;100.00
21817;BME280;13247;47.504;7.382;2023-01-29T02:54:38;98290.75;;;1.15;100.00
21817;BME280;13247;47.504;7.382;2023-01-29T02:57:29;98286.47;;;1.17;100.00
21817;BME280;13247;47.504;7.382;2023-01-29T03:00:22;98290.03;;;1.22;100.00
21817;BME280;13247;47.504;7.382;2023-01-29T03:03:19;98288.16;;;1.15;100.00
21817;BME280;13247;47.504;7.382;2023-01-29T03:06:23;98286.47;;;1.15;100.00
21817;BME280;13247;47.504;7.382;2023-01-29T03:09:18;98286.47;;;1.17;100.00
21817;BME280;13247;47.504;7.382;2023-01-29T03:12:25;98289.47;;;0.95;100.00
21817;BME280;13247;47.504;7.382;2023-01-29T03:15:27;98284.88;;;1.22;100.00
21817;BME280;13247;47.504;7.382;2023-01-29T03:18:17;98291.19;;;1.36;100.00
21817;BME280;13247;47.504;7.382;2023-01-29T03:21:07;98289.19;;;1.23;100.00
21817;BME280;13247;47.504;7.382;2023-01-29T03:24:16;98286.38;;;1.11;100.00
21817;BME280;13247;47.504;7.382;2023-01-29T03:27:24;98298.25;;;1.03;100.00
21817;BME280;13247;47.504;7.382;2023-01-29T03:30:30;98297.84;;;0.85;100.00
21817;BME280;13247;47.504;7.382;2023-01-29T03:33:44;98299.25;;;1.09;100.00
21817;BME280;13247;47.504;7.382;2023-01-29T03:36:42;98302.28;;;0.90;100.00
21817;BME280;13247;47.504;7.382;2023-01-29T03:39:30;98306.53;;;0.88;100.00
21817;BME280;13247;47.504;7.382;2023-01-29T03:45:36;98306.00;;;1.03;100.00
21817;BME280;13247;47.504;7.382;2023-01-29T03:48:44;98299.50;;;0.82;100.00
21817;BME280;13247;47.504;7.382;2023-01-29T03:51:57;98295.59;;;1.00;100.00
21817;BME280;13247;47.504;7.382;2023-01-29T03:58:07;98303.75;;;1.18;100.00
21817;BME280;13247;47.504;7.382;2023-01-29T04:01:16;98297.56;;;1.10;100.00
21817;BME280;13247;47.504;7.382;2023-01-29T04:04:25;98292.63;;;0.82;100.00
21817;BME280;13247;47.504;7.382;2023-01-29T04:07:14;98296.22;;;0.90;100.00
21817;BME280;13247;47.504;7.382;2023-01-29T04:10:07;98294.31;;;0.79;100.00
21817;BME280;13247;47.504;7.382;2023-01-29T04:13:00;98292.78;;;0.89;100.00
21817;BME280;13247;47.504;7.382;2023-01-29T04:15:52;98289.28;;;0.87;100.00
21817;BME280;13247;47.504;7.382;2023-01-29T04:18:39;98284.47;;;1.02;100.00
21817;BME280;13247;47.504;7.382;2023-01-29T04:21:25;98282.94;;;0.71;100.00
21817;BME280;13247;47.504;7.382;2023-01-29T04:24:11;98299.19;;;0.67;100.00
21817;BME280;13247;47.504;7.382;2023-01-29T04:38:49;98296.69;;;0.72;100.00
21817;BME280;13247;47.504;7.382;2023-01-29T04:42:08;98297.31;;;0.60;100.00
21817;BME280;13247;47.504;7.382;2023-01-29T04:50:56;98294.50;;;0.89;100.00
21817;BME280;13247;47.504;7.382;2023-01-29T04:59:54;98302.03;;;0.78;100.00
21817;BME280;13247;47.504;7.382;2023-01-29T05:02:43;98298.56;;;0.77;100.00
21817;BME280;13247;47.504;7.382;2023-01-29T05:05:28;98305.66;;;0.88;100.00
21817;BME280;13247;47.504;7.382;2023-01-29T05:08:18;98294.81;;;1.04;100.00
21817;BME280;13247;47.504;7.382;2023-01-29T05:11:04;98292.97;;;1.38;100.00
21817;BME280;13247;47.504;7.382;2023-01-29T05:13:49;98294.66;;;1.38;100.00
21817;BME280;13247;47.504;7.382;2023-01-29T05:16:46;98295.72;;;1.47;100.00
21817;BME280;13247;47.504;7.382;2023-01-29T05:19:33;98303.28;;;1.38;100.00
21817;BME280;13247;47.504;7.382;2023-01-29T05:22:18;98300.63;;;1.35;100.00
21817;BME280;13247;47.504;7.382;2023-01-29T05:25:30;98291.03;;;1.28;100.00
21817;BME280;13247;47.504;7.382;2023-01-29T05:28:14;98297.94;;;1.29;100.00
21817;BME280;13247;47.504;7.382;2023-01-29T05:31:02;98284.41;;;1.41;100.00
21817;BME280;13247;47.504;7.382;2023-01-29T05:33:47;98289.47;;;1.35;100.00
21817;BME280;13247;47.504;7.382;2023-01-29T05:36:32;98301.31;;;1.25;100.00
21817;BME280;13247;47.504;7.382;2023-01-29T05:39:16;98301.72;;;1.45;100.00
21817;BME280;13247;47.504;7.382;2023-01-29T05:42:01;98305.75;;;1.31;100.00
21817;BME280;13247;47.504;7.382;2023-01-29T05:44:46;98313.13;;;1.14;100.00
21817;BME280;13247;47.504;7.382;2023-01-29T05:47:31;98324.03;;;1.01;100.00
21817;BME280;13247;47.504;7.382;2023-01-29T05:50:15;98330.16;;;0.67;100.00
21817;BME280;13247;47.504;7.382;2023-01-29T05:53:01;98323.50;;;0.77;100.00
21817;BME280;13247;47.504;7.382;2023-01-29T05:55:46;98317.22;;;1.05;100.00
21817;BME280;13247;47.504;7.382;2023-01-29T05:58:32;98314.94;;;1.18;100.00
21817;BME280;13247;47.504;7.382;2023-01-29T06:01:21;98313.19;;;1.17;100.00
21817;BME280;13247;47.504;7.382;2023-01-29T06:04:06;98329.16;;;1.00;100.00
21817;BME280;13247;47.504;7.382;2023-01-29T06:06:51;98319.72;;;1.00;100.00
21817;BME280;13247;47.504;7.382;2023-01-29T06:09:35;98334.13;;;0.91;100.00
21817;BME280;13247;47.504;7.382;2023-01-29T06:12:20;98330.28;;;1.12;100.00
21817;BME280;13247;47.504;7.382;2023-01-29T06:15:04;98334.94;;;0.88;100.00
21817;BME280;13247;47.504;7.382;2023-01-29T06:17:49;98343.38;;;1.20;100.00
21817;BME280;13247;47.504;7.382;2023-01-29T06:20:34;98346.59;;;0.72;100.00
21817;BME280;13247;47.504;7.382;2023-01-29T06:23:18;98356.88;;;0.69;100.00
21817;BME280;13247;47.504;7.382;2023-01-29T06:26:05;98349.91;;;0.65;100.00
21817;BME280;13247;47.504;7.382;2023-01-29T06:28:50;98359.47;;;0.69;100.00
21817;BME280;13247;47.504;7.382;2023-01-29T06:31:34;98358.38;;;0.61;100.00
21817;BME280;13247;47.504;7.382;2023-01-29T06:34:19;98350.88;;;0.70;100.00
21817;BME280;13247;47.504;7.382;2023-01-29T06:37:03;98346.09;;;0.50;100.00
21817;BME280;13247;47.504;7.382;2023-01-29T06:39:48;98337.66;;;0.57;100.00
21817;BME280;13247;47.504;7.382;2023-01-29T06:42:36;98336.72;;;0.91;100.00
21817;BME280;13247;47.504;7.382;2023-01-29T06:45:20;98325.50;;;0.90;100.00
21817;BME280;13247;47.504;7.382;2023-01-29T06:48:05;98324.66;;;0.91;100.00
21817;BME280;13247;47.504;7.382;2023-01-29T06:50:50;98312.06;;;1.05;100.00
21817;BME280;13247;47.504;7.382;2023-01-29T06:53:37;98312.97;;;1.07;100.00
21817;BME280;13247;47.504;7.382;2023-01-29T06:56:23;98315.78;;;1.17;100.00
21817;BME280;13247;47.504;7.382;2023-01-29T06:59:07;98324.75;;;1.36;100.00
21817;BME280;13247;47.504;7.382;2023-01-29T07:01:52;98324.13;;;1.06;100.00
21817;BME280;13247;47.504;7.382;2023-01-29T07:04:36;98322.06;;;0.52;100.00
21817;BME280;13247;47.504;7.382;2023-01-29T07:07:22;98318.63;;;0.53;100.00
21817;BME280;13247;47.504;7.382;2023-01-29T07:10:07;98318.00;;;0.63;100.00
21817;BME280;13247;47.504;7.382;2023-01-29T07:12:52;98327.22;;;0.52;100.00
21817;BME280;13247;47.504;7.382;2023-01-29T07:15:37;98344.03;;;0.72;100.00
21817;BME280;13247;47.504;7.382;2023-01-29T07:18:21;98338.22;;;0.82;100.00
21817;BME280;13247;47.504;7.382;2023-01-29T07:21:06;98338.75;;;0.68;100.00
21817;BME280;13247;47.504;7.382;2023-01-29T07:23:51;98340.03;;;0.49;100.00
21817;BME280;13247;47.504;7.382;2023-01-29T07:26:35;98343.16;;;0.72;100.00
21817;BME280;13247;47.504;7.382;2023-01-29T07:29:20;98352.31;;;0.59;100.00
21817;BME280;13247;47.504;7.382;2023-01-29T07:32:05;98355.81;;;0.61;100.00
21817;BME280;13247;47.504;7.382;2023-01-29T07:34:49;98345.47;;;0.97;100.00
21817;BME280;13247;47.504;7.382;2023-01-29T07:37:34;98356.28;;;0.81;100.00
21817;BME280;13247;47.504;7.382;2023-01-29T07:40:18;98364.25;;;0.54;100.00
21817;BME280;13247;47.504;7.382;2023-01-29T07:43:05;98364.81;;;0.78;100.00
21817;BME280;13247;47.504;7.382;2023-01-29T07:45:50;98365.59;;;0.74;100.00
21817;BME280;13247;47.504;7.382;2023-01-29T07:48:35;98363.91;;;0.76;100.00
21817;BME280;13247;47.504;7.382;2023-01-29T07:51:20;98374.34;;;0.81;100.00
21817;BME280;13247;47.504;7.382;2023-01-29T07:54:05;98361.81;;;0.98;100.00
21817;BME280;13247;47.504;7.382;2023-01-29T07:56:49;98375.84;;;0.71;100.00
21817;BME280;13247;47.504;7.382;2023-01-29T07:59:34;98374.25;;;0.42;100.00
21817;BME280;13247;47.504;7.382;2023-01-29T08:02:18;98370.75;;;0.74;100.00
21817;BME280;13247;47.504;7.382;2023-01-29T08:05:03;98372.94;;;0.58;100.00
21817;BME280;13247;47.504;7.382;2023-01-29T08:07:52;98373.47;;;0.80;100.00
21817;BME280;13247;47.504;7.382;2023-01-29T08:10:40;98378.22;;;0.30;100.00
21817;BME280;13247;47.504;7.382;2023-01-29T08:13:25;98360.53;;;0.79;100.00
21817;BME280;13247;47.504;7.382;2023-01-29T08:16:10;98364.91;;;0.82;100.00
21817;BME280;13247;47.504;7.382;2023-01-29T08:18:54;98373.53;;;0.82;100.00
21817;BME280;13247;47.504;7.382;2023-01-29T08:21:39;98370.56;;;1.04;100.00
21817;BME280;13247;47.504;7.382;2023-01-29T08:24:23;98384.59;;;1.14;100.00
21817;BME280;13247;47.504;7.382;2023-01-29T08:27:08;98379.66;;;1.24;100.00
21817;BME280;13247;47.504;7.382;2023-01-29T08:29:53;98376.22;;;1.27;100.00
21817;BME280;13247;47.504;7.382;2023-01-29T08:32:38;98385.41;;;1.13;100.00
21817;BME280;13247;47.504;7.382;2023-01-29T08:35:23;98391.72;;;0.88;100.00
21817;BME280;13247;47.504;7.382;2023-01-29T08:38:08;98395.13;;;0.87;100.00
21817;BME280;13247;47.504;7.382;2023-01-29T08:40:54;98396.00;;;0.88;100.00
21817;BME280;13247;47.504;7.382;2023-01-29T08:43:38;98399.72;;;0.99;100.00
21817;BME280;13247;47.504;7.382;2023-01-29T08:46:24;98396.56;;;0.74;100.00
21817;BME280;13247;47.504;7.382;2023-01-29T08:49:08;98404.44;;;0.80;100.00
21817;BME280;13247;47.504;7.382;2023-01-29T08:51:54;98417.81;;;0.64;100.00
21817;BME280;13247;47.504;7.382;2023-01-29T08:54:40;98421.97;;;0.58;100.00
21817;BME280;13247;47.504;7.382;2023-01-29T08:57:24;98423.91;;;0.68;100.00
21817;BME280;13247;47.504;7.382;2023-01-29T09:00:09;98428.16;;;1.00;100.00
21817;BME280;13247;47.504;7.382;2023-01-29T09:02:54;98435.28;;;0.74;100.00
21817;BME280;13247;47.504;7.382;2023-01-29T09:05:39;98442.34;;;0.82;100.00
21817;BME280;13247;47.504;7.382;2023-01-29T09:08:25;98439.50;;;1.07;100.00
21817;BME280;13247;47.504;7.382;2023-01-29T09:11:09;98438.59;;;1.05;100.00
21817;BME280;13247;47.504;7.382;2023-01-29T09:13:54;98436.00;;;1.05;100.00
21817;BME280;13247;47.504;7.382;2023-01-29T09:16:39;98439.25;;;0.96;100.00
21817;BME280;13247;47.504;7.382;2023-01-29T09:19:24;98429.66;;;0.91;100.00
21817;BME280;13247;47.504;7.382;2023-01-29T09:22:08;98427.50;;;1.09;100.00
21817;BME280;13247;47.504;7.382;2023-01-29T09:24:53;98448.78;;;0.99;100.00
21817;BME280;13247;47.504;7.382;2023-01-29T09:27:38;98454.41;;;0.48;100.00
21817;BME280;13247;47.504;7.382;2023-01-29T09:30:23;98447.38;;;0.43;100.00
21817;BME280;13247;47.504;7.382;2023-01-29T09:33:07;98450.56;;;0.65;100.00
21817;BME280;13247;47.504;7.382;2023-01-29T09:35:52;98450.06;;;0.80;100.00
21817;BME280;13247;47.504;7.382;2023-01-29T09:38:37;98443.47;;;0.93;100.00
21817;BME280;13247;47.504;7.382;2023-01-29T09:41:45;98443.75;;;1.05;100.00
21817;BME280;13247;47.504;7.382;2023-01-29T09:45:20;98450.34;;;1.29;100.00
21817;BME280;13247;47.504;7.382;2023-01-29T09:48:02;98450.47;;;1.34;100.00
21817;BME280;13247;47.504;7.382;2023-01-29T09:50:51;98448.91;;;1.42;100.00
21817;BME280;13247;47.504;7.382;2023-01-29T09:56:42;98450.47;;;1.73;100.00
21817;BME280;13247;47.504;7.382;2023-01-29T09:59:30;98458.22;;;1.34;100.00
21817;BME280;13247;47.504;7.382;2023-01-29T10:02:45;98465.75;;;1.25;100.00
21817;BME280;13247;47.504;7.382;2023-01-29T10:05:43;98456.19;;;1.58;100.00
21817;BME280;13247;47.504;7.382;2023-01-29T10:23:37;98430.16;;;1.92;100.00
21817;BME280;13247;47.504;7.382;2023-01-29T10:26:25;98439.22;;;2.14;100.00
21817;BME280;13247;47.504;7.382;2023-01-29T10:29:15;98428.53;;;1.96;100.00
21817;BME280;13247;47.504;7.382;2023-01-29T10:32:02;98431.34;;;2.08;100.00
21817;BME280;13247;47.504;7.382;2023-01-29T10:35:40;98424.28;;;1.99;100.00
21817;BME280;13247;47.504;7.382;2023-01-29T10:44:37;98435.63;;;2.06;100.00
21817;BME280;13247;47.504;7.382;2023-01-29T10:50:49;98426.16;;;2.06;100.00
21817;BME280;13247;47.504;7.382;2023-01-29T10:57:09;98410.16;;;2.28;100.00
21817;BME280;13247;47.504;7.382;2023-01-29T11:03:17;98399.28;;;2.46;100.00
21817;BME280;13247;47.504;7.382;2023-01-29T11:06:22;98385.53;;;2.49;100.00
21817;BME280;13247;47.504;7.382;2023-01-29T11:12:20;98383.41;;;2.26;100.00
21817;BME280;13247;47.504;7.382;2023-01-29T11:21:00;98353.63;;;2.02;100.00
21817;BME280;13247;47.504;7.382;2023-01-29T11:23:45;98353.75;;;2.09;100.00
21817;BME280;13247;47.504;7.382;2023-01-29T11:26:34;98347.28;;;2.32;100.00
21817;BME280;13247;47.504;7.382;2023-01-29T11:32:25;98344.03;;;2.43;100.00
21817;BME280;13247;47.504;7.382;2023-01-29T11:38:26;98343.47;;;2.63;100.00
21817;BME280;13247;47.504;7.382;2023-01-29T11:41:15;98338.56;;;2.27;100.00
21817;BME280;13247;47.504;7.382;2023-01-29T11:44:21;98334.81;;;2.10;100.00
21817;BME280;13247;47.504;7.382;2023-01-29T11:47:17;98337.50;;;2.67;100.00
21817;BME280;13247;47.504;7.382;2023-01-29T11:50:03;98339.56;;;2.89;100.00
21817;BME280;13247;47.504;7.382;2023-01-29T11:52:47;98336.22;;;2.98;100.00
21817;BME280;13247;47.504;7.382;2023-01-29T11:55:36;98346.91;;;2.62;100.00
21817;BME280;13247;47.504;7.382;2023-01-29T11:58:30;98342.81;;;2.24;100.00
21817;BME280;13247;47.504;7.382;2023-01-29T12:01:22;98343.34;;;2.05;100.00
21817;BME280;13247;47.504;7.382;2023-01-29T12:04:23;98346.91;;;2.11;100.00
21817;BME280;13247;47.504;7.382;2023-01-29T12:07:13;98350.53;;;2.21;100.00
21817;BME280;13247;47.504;7.382;2023-01-29T12:09:59;98343.06;;;2.37;100.00
21817;BME280;13247;47.504;7.382;2023-01-29T12:12:44;98345.66;;;2.37;100.00
21817;BME280;13247;47.504;7.382;2023-01-29T12:15:28;98341.78;;;2.64;100.00
21817;BME280;13247;47.504;7.382;2023-01-29T12:18:34;98338.56;;;2.81;100.00
21817;BME280;13247;47.504;7.382;2023-01-29T12:21:29;98328.13;;;2.74;100.00
21817;BME280;13247;47.504;7.382;2023-01-29T12:24:40;98328.34;;;2.90;100.00
21817;BME280;13247;47.504;7.382;2023-01-29T12:27:35;98324.88;;;2.88;100.00
21817;BME280;13247;47.504;7.382;2023-01-29T12:30:41;98329.47;;;3.06;100.00
21817;BME280;13247;47.504;7.382;2023-01-29T12:33:54;98325.19;;;3.09;100.00
21817;BME280;13247;47.504;7.382;2023-01-29T12:37:20;98326.75;;;2.98;100.00
21817;BME280;13247;47.504;7.382;2023-01-29T12:40:16;98337.69;;;3.39;100.00
21817;BME280;13247;47.504;7.382;2023-01-29T12:43:10;98333.44;;;3.47;100.00
21817;BME280;13247;47.504;7.382;2023-01-29T12:45:58;98321.50;;;3.60;100.00
21817;BME280;13247;47.504;7.382;2023-01-29T12:48:45;98326.97;;;3.85;100.00
21817;BME280;13247;47.504;7.382;2023-01-29T12:51:45;98331.28;;;3.83;100.00
21817;BME280;13247;47.504;7.382;2023-01-29T12:54:55;98325.19;;;3.11;100.00
21817;BME280;13247;47.504;7.382;2023-01-29T12:58:00;98321.56;;;3.64;100.00
21817;BME280;13247;47.504;7.382;2023-01-29T13:00:49;98318.84;;;3.55;100.00
21817;BME280;13247;47.504;7.382;2023-01-29T13:04:16;98316.31;;;3.61;100.00
21817;BME280;13247;47.504;7.382;2023-01-29T13:07:20;98310.53;;;3.82;100.00
21817;BME280;13247;47.504;7.382;2023-01-29T13:10:17;98305.16;;;3.65;100.00
21817;BME280;13247;47.504;7.382;2023-01-29T13:13:33;98294.16;;;3.89;100.00
21817;BME280;13247;47.504;7.382;2023-01-29T13:16:32;98299.03;;;3.60;100.00
21817;BME280;13247;47.504;7.382;2023-01-29T13:19:34;98296.56;;;3.71;100.00
21817;BME280;13247;47.504;7.382;2023-01-29T13:22:27;98290.50;;;3.67;100.00
21817;BME280;13247;47.504;7.382;2023-01-29T13:25:17;98291.16;;;3.51;100.00
21817;BME280;13247;47.504;7.382;2023-01-29T13:28:02;98287.72;;;3.52;100.00
21817;BME280;13247;47.504;7.382;2023-01-29T13:31:05;98286.88;;;3.55;100.00
21817;BME280;13247;47.504;7.382;2023-01-29T13:36:53;98268.16;;;3.81;95.18
21817;BME280;13247;47.504;7.382;2023-01-29T13:39:46;98267.47;;;3.99;93.32
21817;BME280;13247;47.504;7.382;2023-01-29T13:42:44;98267.38;;;3.91;100.00
21817;BME280;13247;47.504;7.382;2023-01-29T13:45:41;98265.75;;;4.03;99.51
21817;BME280;13247;47.504;7.382;2023-01-29T13:48:28;98259.78;;;4.13;100.00
21817;BME280;13247;47.504;7.382;2023-01-29T13:51:21;98257.66;;;3.72;97.57
21817;BME280;13247;47.504;7.382;2023-01-29T13:54:19;98258.97;;;3.34;100.00
21817;BME280;13247;47.504;7.382;2023-01-29T13:57:05;98253.13;;;3.50;100.00
21817;BME280;13247;47.504;7.382;2023-01-29T14:05:59;98242.22;;;3.84;98.36
21817;BME280;13247;47.504;7.382;2023-01-29T14:08:45;98233.75;;;4.01;100.00
21817;BME280;13247;47.504;7.382;2023-01-29T14:11:35;98225.75;;;3.79;96.69
21817;BME280;13247;47.504;7.382;2023-01-29T14:17:33;98225.53;;;3.57;100.00
21817;BME280;13247;47.504;7.382;2023-01-29T14:20:25;98224.97;;;3.86;98.25
21817;BME280;13247;47.504;7.382;2023-01-29T14:29:28;98226.44;;;3.60;98.21
21817;BME280;13247;47.504;7.382;2023-01-29T14:32:20;98222.19;;;3.65;96.76
21817;BME280;13247;47.504;7.382;2023-01-29T14:35:19;98217.00;;;3.67;100.00
21817;BME280;13247;47.504;7.382;2023-01-29T14:38:06;98227.63;;;3.92;100.00
21817;BME280;13247;47.504;7.382;2023-01-29T14:40:50;98220.66;;;3.91;99.97
21817;BME280;13247;47.504;7.382;2023-01-29T14:43:45;98225.41;;;3.45;100.00
21817;BME280;13247;47.504;7.382;2023-01-29T14:49:51;98227.13;;;3.44;100.00
21817;BME280;13247;47.504;7.382;2023-01-29T14:52:38;98231.47;;;3.45;100.00
21817;BME280;13247;47.504;7.382;2023-01-29T14:55:26;98229.31;;;3.08;100.00
21817;BME280;13247;47.504;7.382;2023-01-29T14:58:25;98226.91;;;3.25;100.00
21817;BME280;13247;47.504;7.382;2023-01-29T15:04:16;98234.91;;;3.44;100.00
21817;BME280;13247;47.504;7.382;2023-01-29T15:13:18;98239.94;;;3.31;100.00
21817;BME280;13247;47.504;7.382;2023-01-29T15:16:15;98234.22;;;3.60;100.00
21817;BME280;13247;47.504;7.382;2023-01-29T15:19:36;98235.97;;;3.63;100.00
21817;BME280;13247;47.504;7.382;2023-01-29T15:22:24;98244.25;;;3.30;100.00
21817;BME280;13247;47.504;7.382;2023-01-29T15:25:13;98248.78;;;3.49;100.00
21817;BME280;13247;47.504;7.382;2023-01-29T15:27:58;98258.13;;;3.37;100.00
21817;BME280;13247;47.504;7.382;2023-01-29T15:30:53;98252.00;;;3.29;100.00
21817;BME280;13247;47.504;7.382;2023-01-29T15:33:41;98251.13;;;3.25;100.00
21817;BME280;13247;47.504;7.382;2023-01-29T15:36:30;98252.31;;;3.56;100.00
21817;BME280;13247;47.504;7.382;2023-01-29T15:39:19;98262.56;;;3.45;100.00
21817;BME280;13247;47.504;7.382;2023-01-29T15:42:13;98252.00;;;3.29;100.00
21817;BME280;13247;47.504;7.382;2023-01-29T15:45:28;98253.94;;;3.46;100.00
21817;BME280;13247;47.504;7.382;2023-01-29T15:48:17;98264.34;;;3.51;100.00
21817;BME280;13247;47.504;7.382;2023-01-29T15:51:05;98253.03;;;3.43;100.00
21817;BME280;13247;47.504;7.382;2023-01-29T15:54:00;98258.16;;;3.38;100.00
21817;BME280;13247;47.504;7.382;2023-01-29T15:56:49;98259.03;;;3.37;100.00
21817;BME280;13247;47.504;7.382;2023-01-29T15:59:38;98257.97;;;3.22;100.00
21817;BME280;13247;47.504;7.382;2023-01-29T16:02:39;98264.97;;;3.27;100.00
21817;BME280;13247;47.504;7.382;2023-01-29T16:05:27;98270.75;;;3.08;100.00
21817;BME280;13247;47.504;7.382;2023-01-29T16:08:14;98271.59;;;3.07;100.00
21817;BME280;13247;47.504;7.382;2023-01-29T16:11:02;98269.28;;;3.28;100.00
21817;BME280;13247;47.504;7.382;2023-01-29T16:13:48;98279.97;;;2.88;100.00
21817;BME280;13247;47.504;7.382;2023-01-29T16:16:33;98270.19;;;2.67;100.00
21817;BME280;13247;47.504;7.382;2023-01-29T16:19:27;98268.47;;;2.68;100.00
21817;BME280;13247;47.504;7.382;2023-01-29T16:22:13;98278.75;;;2.63;100.00
21817;BME280;13247;47.504;7.382;2023-01-29T16:25:10;98273.56;;;2.62;100.00
21817;BME280;13247;47.504;7.382;2023-01-29T16:27:57;98281.09;;;2.47;100.00
21817;BME280;13247;47.504;7.382;2023-01-29T16:30:42;98276.91;;;2.55;100.00
21817;BME280;13247;47.504;7.382;2023-01-29T16:33:35;98276.50;;;2.29;100.00
21817;BME280;13247;47.504;7.382;2023-01-29T16:36:23;98283.38;;;2.28;100.00
21817;BME280;13247;47.504;7.382;2023-01-29T16:39:17;98287.00;;;2.36;100.00
21817;BME280;13247;47.504;7.382;2023-01-29T16:45:04;98293.00;;;2.35;100.00
21817;BME280;13247;47.504;7.382;2023-01-29T16:48:00;98293.34;;;2.06;100.00
21817;BME280;13247;47.504;7.382;2023-01-29T16:50:45;98292.19;;;1.90;100.00
21817;BME280;13247;47.504;7.382;2023-01-29T16:53:30;98294.69;;;1.84;100.00
21817;BME280;13247;47.504;7.382;2023-01-29T16:56:15;98293.66;;;1.75;100.00
21817;BME280;13247;47.504;7.382;2023-01-29T16:59:05;98290.91;;;1.67;100.00
21817;BME280;13247;47.504;7.382;2023-01-29T17:01:55;98300.44;;;1.70;100.00
21817;BME280;13247;47.504;7.382;2023-01-29T17:04:40;98302.13;;;1.68;100.00
21817;BME280;13247;47.504;7.382;2023-01-29T17:07:25;98305.53;;;1.65;100.00
21817;BME280;13247;47.504;7.382;2023-01-29T17:10:19;98308.22;;;1.71;100.00
21817;BME280;13247;47.504;7.382;2023-01-29T17:13:07;98311.41;;;1.56;100.00